KILG/ILG METAR and TAF weather

Enter ICAO airport designator
Station Type Date Time Source
KILG METAR 2021/04/17 02:51 UTC NOAA

KILG 170251Z 32012KT 10SM OVC055 11/01 A2978 RMK AO2 SLP084 T01110011 51020 $


Station Type Date Time Source
KILG Decoded METAR 2021/04/17 02:51 UTC NOAA

WILMINGTON NEW CASTLE CO, DE, United States (KILG) 39-40N 075-36W 28M
Apr 16, 2021 - 10:51 PM EDT / 2021.04.17 0251 UTC
Wind: from the NW (320 degrees) at 14 MPH (12 KT):0
Visibility: 10 mile(s):0
Sky conditions: overcast
Temperature: 52.0 F (11.1 C)
Dew Point: 34.0 F (1.1 C)
Relative Humidity: 50%
Pressure (altimeter): 29.78 in. Hg (1008 hPa)
Pressure tendency: 0.06 inches (2.0 hPa) higher than three hours ago
ob: KILG 170251Z 32012KT 10SM OVC055 11/01 A2978 RMK AO2 SLP084 T01110011 51020
cycle: 3

Station Type Date Time Source
KILG TAF 2021/04/16 18:28 UTC NOAA

TAF KILG 161725Z 1618/1718 30014G24KT P6SM VCSH BKN045
FM170000 30012KT P6SM BKN045
FM170900 30008KT P6SM SCT035
FM171400 33010KT P6SM BKN040

Example: see airport list